AIC176 EHAM-EDDF
Flight info
| Callsign | AIC176 |
|---|---|
| Flight time | 0h 46m |
| Altitude | 35000 |
| Route | RENDI2Z EDUPO Z739 MISGO DCT DIXAT DIXAT1A |
| Aircraft | B789/H-SDE1E2E3FGHIJ2J3J4J5M1RWXY/LB1D1 |
Departure
| Time | 2026-05-05 19:44 |
|---|---|
| Airport | Amsterdam Airport Schiphol (EHAM) |
Arrival
| Time | 2026-05-05 20:30 |
|---|---|
| Airport | Frankfurt Main Airport (EDDF) |
| Time | Latitude | Longitude | Altitude | Speed | Heading |
|---|---|---|---|---|---|
| 2026-05-05 19:06 | 52.31298 | 4.75809 | 3 ft | 0 kts | 266° |
| 2026-05-05 19:25 | 52.31299 | 4.75839 | 5 ft | 3 kts | 272° |
| 2026-05-05 19:25 | 52.31296 | 4.75877 | 4 ft | 3 kts | 285° |
| 2026-05-05 19:25 | 52.31288 | 4.75912 | 5 ft | 3 kts | 305° |
| 2026-05-05 19:25 | 52.31273 | 4.75937 | 5 ft | 3 kts | 346° |
| 2026-05-05 19:26 | 52.31267 | 4.75939 | 4 ft | 7 kts | 356° |
| 2026-05-05 19:30 | 52.31273 | 4.75939 | 4 ft | 2 kts | 356° |
| 2026-05-05 19:31 | 52.31291 | 4.75937 | 5 ft | 5 kts | 356° |
| 2026-05-05 19:31 | 52.31347 | 4.75932 | 3 ft | 11 kts | 356° |
| 2026-05-05 19:31 | 52.31437 | 4.75923 | 3 ft | 14 kts | 356° |
| 2026-05-05 19:31 | 52.31512 | 4.75890 | 3 ft | 8 kts | 314° |
| 2026-05-05 19:32 | 52.31526 | 4.75794 | 3 ft | 10 kts | 267° |
| 2026-05-05 19:32 | 52.31521 | 4.75657 | 3 ft | 14 kts | 266° |
| 2026-05-05 19:32 | 52.31514 | 4.75486 | 3 ft | 15 kts | 266° |
| 2026-05-05 19:32 | 52.31506 | 4.75290 | 3 ft | 19 kts | 266° |
| 2026-05-05 19:33 | 52.31503 | 4.75196 | 3 ft | 4 kts | 267° |
| 2026-05-05 19:33 | 52.31501 | 4.75125 | 3 ft | 8 kts | 267° |
| 2026-05-05 19:33 | 52.31499 | 4.75047 | 3 ft | 1 kts | 267° |
| 2026-05-05 19:33 | 52.31498 | 4.75024 | 3 ft | 0 kts | 267° |
| 2026-05-05 19:35 | 52.31498 | 4.75023 | 3 ft | 1 kts | 267° |
| 2026-05-05 19:36 | 52.31497 | 4.74988 | 3 ft | 5 kts | 267° |
| 2026-05-05 19:36 | 52.31495 | 4.74905 | 3 ft | 9 kts | 267° |
| 2026-05-05 19:36 | 52.31491 | 4.74776 | 3 ft | 13 kts | 267° |
| 2026-05-05 19:36 | 52.31486 | 4.74603 | 3 ft | 17 kts | 266° |
| 2026-05-05 19:37 | 52.31478 | 4.74428 | 3 ft | 16 kts | 266° |
| 2026-05-05 19:37 | 52.31428 | 4.74292 | 3 ft | 14 kts | 197° |
| 2026-05-05 19:37 | 52.31319 | 4.74274 | 3 ft | 18 kts | 184° |
| 2026-05-05 19:37 | 52.31183 | 4.74260 | 3 ft | 22 kts | 184° |
| 2026-05-05 19:38 | 52.31021 | 4.74242 | 3 ft | 25 kts | 184° |
| 2026-05-05 19:38 | 52.30848 | 4.74229 | 3 ft | 21 kts | 182° |
| 2026-05-05 19:38 | 52.30695 | 4.74212 | 3 ft | 24 kts | 184° |
| 2026-05-05 19:38 | 52.30589 | 4.74207 | 3 ft | 14 kts | 181° |
| 2026-05-05 19:39 | 52.30476 | 4.74198 | 3 ft | 18 kts | 182° |
| 2026-05-05 19:39 | 52.30351 | 4.74133 | 3 ft | 20 kts | 227° |
| 2026-05-05 19:39 | 52.30255 | 4.73955 | 3 ft | 20 kts | 220° |
| 2026-05-05 19:39 | 52.30238 | 4.73933 | 3 ft | 0 kts | 219° |
| 2026-05-05 19:42 | 52.30234 | 4.73927 | 3 ft | 3 kts | 219° |
| 2026-05-05 19:42 | 52.30206 | 4.73887 | 1 ft | 8 kts | 229° |
| 2026-05-05 19:42 | 52.30192 | 4.73806 | 2 ft | 7 kts | 277° |
| 2026-05-05 19:42 | 52.30220 | 4.73749 | 1 ft | 4 kts | 343° |
| 2026-05-05 19:43 | 52.30260 | 4.73741 | -1 ft | 8 kts | 2° |
| 2026-05-05 19:43 | 52.30330 | 4.73749 | -2 ft | 11 kts | 4° |
| 2026-05-05 19:43 | 52.30476 | 4.73761 | 1 ft | 46 kts | 2° |
| 2026-05-05 19:43 | 52.31055 | 4.73810 | 6 ft | 119 kts | 3° |
| 2026-05-05 19:44 | 52.32093 | 4.73909 | 71 ft | 172 kts | 5° |
| 2026-05-05 19:44 | 52.33163 | 4.74008 | 1364 ft | 136 kts | 7° |
| 2026-05-05 19:44 | 52.34054 | 4.74076 | 2221 ft | 123 kts | 7° |
| 2026-05-05 19:44 | 52.34899 | 4.74122 | 2713 ft | 120 kts | 7° |
| 2026-05-05 19:45 | 52.35800 | 4.74230 | 2912 ft | 141 kts | 16° |
| 2026-05-05 19:45 | 52.36562 | 4.75428 | 3016 ft | 170 kts | 56° |
| 2026-05-05 19:45 | 52.37063 | 4.76454 | 3281 ft | 183 kts | 38° |
| 2026-05-05 19:45 | 52.38259 | 4.77411 | 3757 ft | 200 kts | 29° |
| 2026-05-05 19:46 | 52.39326 | 4.79052 | 4225 ft | 222 kts | 47° |
| 2026-05-05 19:46 | 52.40671 | 4.81670 | 5264 ft | 230 kts | 48° |
| 2026-05-05 19:46 | 52.41736 | 4.83680 | 5897 ft | 244 kts | 53° |
| 2026-05-05 19:46 | 52.42352 | 4.86404 | 5988 ft | 267 kts | 83° |
| 2026-05-05 19:47 | 52.42380 | 4.88465 | 5994 ft | 268 kts | 86° |
| 2026-05-05 19:47 | 52.42391 | 4.91518 | 6006 ft | 268 kts | 87° |
| 2026-05-05 19:47 | 52.42398 | 4.94534 | 6798 ft | 268 kts | 87° |
| 2026-05-05 19:47 | 52.42198 | 4.97595 | 7582 ft | 278 kts | 113° |
| 2026-05-05 19:48 | 52.41147 | 5.00258 | 8485 ft | 283 kts | 135° |
| 2026-05-05 19:48 | 52.39511 | 5.02089 | 9321 ft | 290 kts | 147° |
| 2026-05-05 19:48 | 52.37869 | 5.04048 | 10203 ft | 293 kts | 142° |
| 2026-05-05 19:48 | 52.36182 | 5.06140 | 10582 ft | 317 kts | 144° |
| 2026-05-05 19:49 | 52.34301 | 5.08312 | 10817 ft | 344 kts | 145° |
| 2026-05-05 19:49 | 52.32459 | 5.11029 | 10995 ft | 368 kts | 130° |
| 2026-05-05 19:49 | 52.30757 | 5.14168 | 11826 ft | 371 kts | 131° |
| 2026-05-05 19:49 | 52.29025 | 5.17327 | 12686 ft | 375 kts | 131° |
| 2026-05-05 19:50 | 52.27269 | 5.20514 | 13543 ft | 379 kts | 132° |
| 2026-05-05 19:50 | 52.25490 | 5.23739 | 14248 ft | 384 kts | 132° |
| 2026-05-05 19:50 | 52.23811 | 5.27056 | 14991 ft | 386 kts | 124° |
| 2026-05-05 19:50 | 52.22286 | 5.30685 | 15686 ft | 390 kts | 126° |
| 2026-05-05 19:51 | 52.20693 | 5.34283 | 16410 ft | 393 kts | 126° |
| 2026-05-05 19:51 | 52.19093 | 5.37921 | 17128 ft | 396 kts | 125° |
| 2026-05-05 19:51 | 52.17499 | 5.41610 | 17851 ft | 400 kts | 125° |
| 2026-05-05 19:51 | 52.15889 | 5.45331 | 18549 ft | 401 kts | 126° |
| 2026-05-05 19:52 | 52.14273 | 5.49026 | 19214 ft | 402 kts | 126° |
| 2026-05-05 19:52 | 52.12639 | 5.52751 | 19825 ft | 404 kts | 126° |
| 2026-05-05 19:52 | 52.11007 | 5.56482 | 20422 ft | 407 kts | 126° |
| 2026-05-05 19:52 | 52.09356 | 5.60254 | 20956 ft | 410 kts | 127° |
| 2026-05-05 19:53 | 52.07694 | 5.64041 | 21418 ft | 414 kts | 127° |
| 2026-05-05 19:53 | 52.05987 | 5.67857 | 21887 ft | 418 kts | 131° |
| 2026-05-05 19:53 | 52.04066 | 5.71424 | 22335 ft | 421 kts | 133° |
| 2026-05-05 19:53 | 52.02140 | 5.75030 | 22814 ft | 424 kts | 132° |
| 2026-05-05 19:54 | 52.00202 | 5.78667 | 23314 ft | 427 kts | 133° |
| 2026-05-05 19:54 | 51.98242 | 5.82318 | 23733 ft | 430 kts | 133° |
| 2026-05-05 19:54 | 51.96270 | 5.85976 | 24152 ft | 432 kts | 133° |
| 2026-05-05 19:54 | 51.94327 | 5.89609 | 24646 ft | 431 kts | 133° |
| 2026-05-05 19:55 | 51.92361 | 5.93293 | 25000 ft | 434 kts | 133° |
| 2026-05-05 19:55 | 51.90375 | 5.96993 | 25383 ft | 436 kts | 133° |
| 2026-05-05 19:55 | 51.88376 | 6.00701 | 25761 ft | 437 kts | 133° |
| 2026-05-05 19:55 | 51.86372 | 6.04421 | 26129 ft | 439 kts | 133° |
| 2026-05-05 19:56 | 51.84362 | 6.08151 | 26481 ft | 441 kts | 133° |
| 2026-05-05 19:56 | 51.82331 | 6.11880 | 26816 ft | 443 kts | 133° |
| 2026-05-05 19:56 | 51.80285 | 6.15619 | 27176 ft | 445 kts | 133° |
| 2026-05-05 19:56 | 51.78236 | 6.19374 | 27488 ft | 446 kts | 133° |
| 2026-05-05 19:57 | 51.76177 | 6.23151 | 27800 ft | 448 kts | 133° |
| 2026-05-05 19:57 | 51.74104 | 6.26937 | 28129 ft | 450 kts | 133° |
| 2026-05-05 19:57 | 51.72025 | 6.30721 | 28424 ft | 452 kts | 133° |
| 2026-05-05 19:57 | 51.69944 | 6.34508 | 28893 ft | 450 kts | 133° |
| 2026-05-05 19:58 | 51.67885 | 6.38253 | 29161 ft | 452 kts | 133° |
| 2026-05-05 19:58 | 51.65793 | 6.42051 | 29463 ft | 453 kts | 133° |
| 2026-05-05 19:58 | 51.63691 | 6.45858 | 29715 ft | 455 kts | 133° |
| 2026-05-05 19:58 | 51.61584 | 6.49669 | 30002 ft | 456 kts | 133° |
| 2026-05-05 19:59 | 51.59475 | 6.53486 | 30252 ft | 457 kts | 133° |
| 2026-05-05 19:59 | 51.57362 | 6.57302 | 30482 ft | 458 kts | 133° |
| 2026-05-05 19:59 | 51.55234 | 6.61135 | 30714 ft | 459 kts | 133° |
| 2026-05-05 19:59 | 51.53174 | 6.64842 | 30940 ft | 460 kts | 133° |
| 2026-05-05 20:00 | 51.51057 | 6.68646 | 31152 ft | 460 kts | 133° |
| 2026-05-05 20:00 | 51.48920 | 6.72480 | 31374 ft | 461 kts | 133° |
| 2026-05-05 20:00 | 51.46777 | 6.76321 | 31538 ft | 463 kts | 133° |
| 2026-05-05 20:00 | 51.44627 | 6.80168 | 31847 ft | 462 kts | 134° |
| 2026-05-05 20:01 | 51.42486 | 6.83992 | 32170 ft | 460 kts | 134° |
| 2026-05-05 20:01 | 51.40358 | 6.87816 | 32470 ft | 459 kts | 131° |
| 2026-05-05 20:01 | 51.38371 | 6.91825 | 32730 ft | 458 kts | 130° |
| 2026-05-05 20:01 | 51.36391 | 6.95810 | 33051 ft | 457 kts | 130° |
| 2026-05-05 20:02 | 51.34415 | 6.99778 | 33393 ft | 454 kts | 130° |
| 2026-05-05 20:02 | 51.32443 | 7.03719 | 33691 ft | 453 kts | 130° |
| 2026-05-05 20:02 | 51.30478 | 7.07655 | 33976 ft | 452 kts | 130° |
| 2026-05-05 20:02 | 51.28487 | 7.11536 | 34117 ft | 452 kts | 136° |
| 2026-05-05 20:03 | 51.26171 | 7.14899 | 34291 ft | 450 kts | 144° |
| 2026-05-05 20:03 | 51.20757 | 7.19833 | 34379 ft | 455 kts | 154° |
| 2026-05-05 20:04 | 51.15038 | 7.24374 | 34385 ft | 460 kts | 154° |
| 2026-05-05 20:04 | 51.12185 | 7.26624 | 33590 ft | 459 kts | 153° |
| 2026-05-05 20:04 | 51.09348 | 7.28991 | 32450 ft | 462 kts | 152° |
| 2026-05-05 20:04 | 51.06488 | 7.31329 | 31692 ft | 460 kts | 153° |
| 2026-05-05 20:05 | 51.03647 | 7.33631 | 30967 ft | 457 kts | 152° |
| 2026-05-05 20:05 | 51.00838 | 7.35951 | 30251 ft | 454 kts | 152° |
| 2026-05-05 20:05 | 50.98047 | 7.38271 | 29486 ft | 451 kts | 152° |
| 2026-05-05 20:05 | 50.95271 | 7.40554 | 28760 ft | 448 kts | 152° |
| 2026-05-05 20:06 | 50.92512 | 7.42807 | 28065 ft | 444 kts | 152° |
| 2026-05-05 20:06 | 50.89785 | 7.45038 | 27350 ft | 436 kts | 152° |
| 2026-05-05 20:06 | 50.87141 | 7.47207 | 25440 ft | 427 kts | 152° |
| 2026-05-05 20:06 | 50.84510 | 7.49361 | 23774 ft | 421 kts | 153° |
| 2026-05-05 20:07 | 50.81930 | 7.51466 | 22147 ft | 412 kts | 153° |
| 2026-05-05 20:07 | 50.79468 | 7.53472 | 21293 ft | 384 kts | 153° |
| 2026-05-05 20:07 | 50.77204 | 7.55318 | 20679 ft | 358 kts | 153° |
| 2026-05-05 20:07 | 50.75072 | 7.57053 | 20210 ft | 332 kts | 153° |
| 2026-05-05 20:08 | 50.73094 | 7.58660 | 19873 ft | 307 kts | 153° |
| 2026-05-05 20:08 | 50.71264 | 7.60146 | 19480 ft | 287 kts | 153° |
| 2026-05-05 20:08 | 50.69489 | 7.61584 | 18678 ft | 286 kts | 153° |
| 2026-05-05 20:08 | 50.67725 | 7.63014 | 17889 ft | 283 kts | 153° |
| 2026-05-05 20:09 | 50.65984 | 7.64425 | 17050 ft | 280 kts | 153° |
| 2026-05-05 20:09 | 50.64262 | 7.65818 | 16248 ft | 276 kts | 153° |
| 2026-05-05 20:09 | 50.62560 | 7.67194 | 15457 ft | 273 kts | 154° |
| 2026-05-05 20:09 | 50.60874 | 7.68559 | 14608 ft | 273 kts | 155° |
| 2026-05-05 20:10 | 50.59183 | 7.69922 | 13859 ft | 271 kts | 155° |
| 2026-05-05 20:10 | 50.57513 | 7.71268 | 13072 ft | 268 kts | 155° |
| 2026-05-05 20:10 | 50.55862 | 7.72598 | 12310 ft | 265 kts | 155° |
| 2026-05-05 20:10 | 50.54254 | 7.73893 | 11552 ft | 261 kts | 155° |
| 2026-05-05 20:11 | 50.52644 | 7.75188 | 10815 ft | 258 kts | 155° |
| 2026-05-05 20:11 | 50.51050 | 7.76468 | 10091 ft | 256 kts | 155° |
| 2026-05-05 20:11 | 50.49477 | 7.77731 | 9349 ft | 253 kts | 155° |
| 2026-05-05 20:11 | 50.47923 | 7.78979 | 8598 ft | 249 kts | 155° |
| 2026-05-05 20:12 | 50.46385 | 7.80212 | 7854 ft | 247 kts | 155° |
| 2026-05-05 20:12 | 50.44868 | 7.81427 | 7150 ft | 244 kts | 155° |
| 2026-05-05 20:12 | 50.43410 | 7.82646 | 6953 ft | 230 kts | 148° |
| 2026-05-05 20:12 | 50.42117 | 7.84325 | 6983 ft | 249 kts | 143° |
| 2026-05-05 20:13 | 50.40749 | 7.85977 | 6970 ft | 246 kts | 145° |
| 2026-05-05 20:13 | 50.39399 | 7.87612 | 6976 ft | 245 kts | 144° |
| 2026-05-05 20:13 | 50.38063 | 7.89262 | 6994 ft | 244 kts | 143° |
| 2026-05-05 20:13 | 50.36891 | 7.91279 | 6963 ft | 259 kts | 123° |
| 2026-05-05 20:14 | 50.36088 | 7.93875 | 6987 ft | 270 kts | 115° |
| 2026-05-05 20:14 | 50.35378 | 7.96612 | 6971 ft | 278 kts | 114° |
| 2026-05-05 20:14 | 50.34675 | 7.99433 | 6992 ft | 277 kts | 113° |
| 2026-05-05 20:14 | 50.33980 | 8.02249 | 6974 ft | 277 kts | 113° |
| 2026-05-05 20:15 | 50.33286 | 8.05057 | 6975 ft | 277 kts | 113° |
| 2026-05-05 20:15 | 50.32593 | 8.07870 | 6994 ft | 277 kts | 113° |
| 2026-05-05 20:15 | 50.31901 | 8.10682 | 6972 ft | 277 kts | 113° |
| 2026-05-05 20:15 | 50.31210 | 8.13487 | 6969 ft | 276 kts | 113° |
| 2026-05-05 20:16 | 50.30518 | 8.16296 | 6987 ft | 276 kts | 113° |
| 2026-05-05 20:16 | 50.29826 | 8.19097 | 6977 ft | 276 kts | 113° |
| 2026-05-05 20:16 | 50.29132 | 8.21899 | 6993 ft | 276 kts | 113° |
| 2026-05-05 20:16 | 50.28438 | 8.24705 | 6977 ft | 276 kts | 113° |
| 2026-05-05 20:17 | 50.27745 | 8.27507 | 6979 ft | 276 kts | 113° |
| 2026-05-05 20:17 | 50.27061 | 8.30272 | 6976 ft | 277 kts | 113° |
| 2026-05-05 20:17 | 50.26376 | 8.33029 | 6995 ft | 275 kts | 114° |
| 2026-05-05 20:17 | 50.25676 | 8.35827 | 6978 ft | 277 kts | 113° |
| 2026-05-05 20:18 | 50.24984 | 8.38627 | 6977 ft | 276 kts | 113° |
| 2026-05-05 20:18 | 50.24293 | 8.41432 | 6982 ft | 277 kts | 113° |
| 2026-05-05 20:18 | 50.23602 | 8.44232 | 6977 ft | 276 kts | 113° |
| 2026-05-05 20:18 | 50.22909 | 8.47035 | 6977 ft | 278 kts | 113° |
| 2026-05-05 20:19 | 50.22171 | 8.50004 | 7002 ft | 308 kts | 113° |
| 2026-05-05 20:19 | 50.21379 | 8.53160 | 6996 ft | 314 kts | 113° |
| 2026-05-05 20:19 | 50.20570 | 8.56363 | 6993 ft | 319 kts | 114° |
| 2026-05-05 20:19 | 50.19763 | 8.59615 | 6994 ft | 324 kts | 110° |
| 2026-05-05 20:20 | 50.19533 | 8.63067 | 7002 ft | 316 kts | 86° |
| 2026-05-05 20:20 | 50.19819 | 8.66351 | 6971 ft | 296 kts | 81° |
| 2026-05-05 20:20 | 50.20206 | 8.69392 | 6963 ft | 277 kts | 79° |
| 2026-05-05 20:20 | 50.20599 | 8.72240 | 6963 ft | 263 kts | 78° |
| 2026-05-05 20:21 | 50.20987 | 8.74997 | 6788 ft | 259 kts | 78° |
| 2026-05-05 20:21 | 50.21374 | 8.77742 | 6519 ft | 258 kts | 78° |
| 2026-05-05 20:21 | 50.21759 | 8.80473 | 6287 ft | 257 kts | 78° |
| 2026-05-05 20:21 | 50.22065 | 8.83205 | 6003 ft | 255 kts | 86° |
| 2026-05-05 20:22 | 50.22191 | 8.85957 | 5741 ft | 253 kts | 88° |
| 2026-05-05 20:22 | 50.22003 | 8.88645 | 5426 ft | 249 kts | 112° |
| 2026-05-05 20:22 | 50.20983 | 8.90692 | 5143 ft | 237 kts | 150° |
| 2026-05-05 20:22 | 50.19518 | 8.91802 | 4985 ft | 230 kts | 161° |
| 2026-05-05 20:23 | 50.18011 | 8.92687 | 4988 ft | 233 kts | 163° |
| 2026-05-05 20:23 | 50.16465 | 8.93059 | 4960 ft | 225 kts | 197° |
| 2026-05-05 20:23 | 50.15113 | 8.92170 | 5008 ft | 197 kts | 211° |
| 2026-05-05 20:23 | 50.14024 | 8.90990 | 4954 ft | 189 kts | 230° |
| 2026-05-05 20:24 | 50.13316 | 8.89345 | 4987 ft | 181 kts | 236° |
| 2026-05-05 20:24 | 50.12778 | 8.87578 | 4997 ft | 180 kts | 249° |
| 2026-05-05 20:24 | 50.12317 | 8.85747 | 4967 ft | 183 kts | 248° |
| 2026-05-05 20:24 | 50.11863 | 8.83861 | 4743 ft | 186 kts | 249° |
| 2026-05-05 20:25 | 50.11417 | 8.81994 | 4481 ft | 182 kts | 249° |
| 2026-05-05 20:25 | 50.10981 | 8.80170 | 4215 ft | 174 kts | 249° |
| 2026-05-05 20:25 | 50.10578 | 8.78483 | 3963 ft | 161 kts | 249° |
| 2026-05-05 20:25 | 50.10192 | 8.76868 | 3738 ft | 158 kts | 249° |
| 2026-05-05 20:26 | 50.09808 | 8.75262 | 3518 ft | 158 kts | 249° |
| 2026-05-05 20:26 | 50.09425 | 8.73661 | 3295 ft | 157 kts | 249° |
| 2026-05-05 20:26 | 50.09045 | 8.72065 | 3080 ft | 158 kts | 249° |
| 2026-05-05 20:26 | 50.08658 | 8.70447 | 2844 ft | 155 kts | 249° |
| 2026-05-05 20:27 | 50.08303 | 8.68962 | 2630 ft | 141 kts | 249° |
| 2026-05-05 20:27 | 50.07969 | 8.67563 | 2434 ft | 135 kts | 249° |
| 2026-05-05 20:27 | 50.07644 | 8.66198 | 2239 ft | 134 kts | 249° |
| 2026-05-05 20:27 | 50.07323 | 8.64858 | 2047 ft | 135 kts | 249° |
| 2026-05-05 20:28 | 50.06991 | 8.63466 | 1861 ft | 139 kts | 248° |
| 2026-05-05 20:28 | 50.06649 | 8.62041 | 1667 ft | 141 kts | 248° |
| 2026-05-05 20:28 | 50.06302 | 8.60592 | 1458 ft | 145 kts | 248° |
| 2026-05-05 20:28 | 50.05955 | 8.59111 | 1241 ft | 146 kts | 249° |
| 2026-05-05 20:29 | 50.05595 | 8.57608 | 1023 ft | 151 kts | 249° |
| 2026-05-05 20:29 | 50.05232 | 8.56084 | 791 ft | 148 kts | 248° |
| 2026-05-05 20:29 | 50.04876 | 8.54585 | 578 ft | 148 kts | 249° |
| 2026-05-05 20:29 | 50.04521 | 8.53105 | 378 ft | 143 kts | 248° |
| 2026-05-05 20:30 | 50.04219 | 8.51853 | 348 ft | 103 kts | 249° |
| 2026-05-05 20:30 | 50.04067 | 8.51230 | 332 ft | 24 kts | 245° |
| 2026-05-05 20:30 | 50.03975 | 8.51017 | 329 ft | 24 kts | 227° |
| 2026-05-05 20:30 | 50.03886 | 8.50892 | 328 ft | 1 kts | 219° |
| 2026-05-05 20:31 | 50.03884 | 8.50889 | 327 ft | 0 kts | 219° |
| 2026-05-05 20:31 | 50.03880 | 8.50885 | 327 ft | 1 kts | 219° |
| 2026-05-05 20:32 | 50.03869 | 8.50870 | 328 ft | 2 kts | 218° |
| 2026-05-05 20:32 | 50.03856 | 8.50857 | 329 ft | 2 kts | 212° |
| 2026-05-05 20:32 | 50.03850 | 8.50852 | 330 ft | 1 kts | 205° |
| 2026-05-05 20:32 | 50.03847 | 8.50851 | 330 ft | 0 kts | 205° |
| 2026-05-05 20:33 | 50.03845 | 8.50849 | 331 ft | 1 kts | 205° |
| 2026-05-05 20:33 | 50.03823 | 8.50841 | 333 ft | 2 kts | 176° |
| 2026-05-05 20:33 | 50.03817 | 8.50843 | 334 ft | 2 kts | 166° |
| 2026-05-05 20:33 | 50.03787 | 8.50940 | 337 ft | 8 kts | 78° |
| 2026-05-05 20:34 | 50.03816 | 8.51072 | 336 ft | 18 kts | 69° |
| 2026-05-05 20:34 | 50.03852 | 8.51219 | 336 ft | 25 kts | 69° |
| 2026-05-05 20:34 | 50.03952 | 8.51635 | 348 ft | 37 kts | 70° |
| 2026-05-05 20:34 | 50.04016 | 8.51903 | 352 ft | 41 kts | 69° |
| 2026-05-05 20:35 | 50.04123 | 8.52351 | 358 ft | 47 kts | 70° |
| 2026-05-05 20:35 | 50.04240 | 8.52841 | 360 ft | 51 kts | 70° |
| 2026-05-05 20:35 | 50.04343 | 8.53268 | 371 ft | 26 kts | 70° |
| 2026-05-05 20:35 | 50.04396 | 8.53511 | 380 ft | 21 kts | 81° |
| 2026-05-05 20:36 | 50.04411 | 8.53757 | 381 ft | 25 kts | 84° |
| 2026-05-05 20:36 | 50.04430 | 8.54040 | 381 ft | 28 kts | 84° |
| 2026-05-05 20:36 | 50.04450 | 8.54360 | 378 ft | 32 kts | 84° |
| 2026-05-05 20:36 | 50.04381 | 8.54695 | 371 ft | 33 kts | 133° |
| 2026-05-05 20:37 | 50.04202 | 8.54834 | 364 ft | 21 kts | 161° |
| 2026-05-05 20:37 | 50.04095 | 8.54895 | 360 ft | 6 kts | 159° |
| 2026-05-05 20:37 | 50.04088 | 8.54900 | 358 ft | 0 kts | 159° |
| 2026-05-05 20:39 | 50.04083 | 8.54903 | 356 ft | 1 kts | 159° |
| 2026-05-05 20:39 | 50.04073 | 8.54909 | 364 ft | 2 kts | 159° |
| 2026-05-05 20:39 | 50.04056 | 8.54919 | 363 ft | 3 kts | 159° |
| 2026-05-05 20:39 | 50.04033 | 8.54934 | 360 ft | 3 kts | 150° |
| 2026-05-05 20:40 | 50.04015 | 8.54975 | 363 ft | 6 kts | 105° |
| 2026-05-05 20:40 | 50.04028 | 8.55054 | 363 ft | 11 kts | 69° |
| 2026-05-05 20:40 | 50.04064 | 8.55204 | 363 ft | 18 kts | 69° |
| 2026-05-05 20:40 | 50.04118 | 8.55430 | 361 ft | 26 kts | 70° |
| 2026-05-05 20:41 | 50.04189 | 8.55727 | 367 ft | 32 kts | 69° |
| 2026-05-05 20:41 | 50.04274 | 8.56082 | 361 ft | 38 kts | 69° |
| 2026-05-05 20:41 | 50.04371 | 8.56488 | 368 ft | 42 kts | 69° |
| 2026-05-05 20:41 | 50.04458 | 8.56852 | 370 ft | 20 kts | 69° |
| 2026-05-05 20:42 | 50.04516 | 8.57093 | 366 ft | 28 kts | 69° |
| 2026-05-05 20:42 | 50.04589 | 8.57406 | 367 ft | 34 kts | 70° |
| 2026-05-05 20:42 | 50.04677 | 8.57779 | 367 ft | 39 kts | 70° |
| 2026-05-05 20:42 | 50.04779 | 8.57989 | 367 ft | 15 kts | 46° |
| 2026-05-05 20:43 | 50.04809 | 8.58079 | 364 ft | 2 kts | 69° |
| 2026-05-05 20:43 | 50.04823 | 8.58135 | 368 ft | 8 kts | 71° |
| 2026-05-05 20:43 | 50.04843 | 8.58211 | 369 ft | 6 kts | 52° |
| 2026-05-05 20:43 | 50.04866 | 8.58221 | 370 ft | 2 kts | 345° |
| 2026-05-05 20:44 | 50.04902 | 8.58198 | 368 ft | 10 kts | 338° |
| 2026-05-05 20:44 | 50.04928 | 8.58183 | 366 ft | 0 kts | 340° |